sensor_id;sensor_type;location;lat;lon;timestamp;P1;durP1;ratioP1;P2;durP2;ratioP2
74872;SDS011;68776;44.762;37.698;2023-08-20T04:20:21;18.53;;;5.43;;
74872;SDS011;68776;44.762;37.698;2023-08-20T04:21:23;24.13;;;5.60;;
74872;SDS011;68776;44.762;37.698;2023-08-20T04:29:34;15.30;;;4.35;;
74872;SDS011;68776;44.762;37.698;2023-08-20T04:30:35;20.08;;;6.47;;
74872;SDS011;68776;44.762;37.698;2023-08-20T04:31:36;19.10;;;5.55;;
74872;SDS011;68776;44.762;37.698;2023-08-20T04:32:41;5.75;;;1.88;;
74872;SDS011;68776;44.762;37.698;2023-08-20T04:33:44;5.07;;;2.03;;
74872;SDS011;68776;44.762;37.698;2023-08-20T04:34:48;23.42;;;6.68;;
74872;SDS011;68776;44.762;37.698;2023-08-20T04:35:54;21.15;;;5.82;;
74872;SDS011;68776;44.762;37.698;2023-08-20T04:37:56;20.80;;;5.47;;
74872;SDS011;68776;44.762;37.698;2023-08-20T04:38:57;7.32;;;2.45;;
74872;SDS011;68776;44.762;37.698;2023-08-20T04:39:58;17.70;;;2.70;;
74872;SDS011;68776;44.762;37.698;2023-08-20T04:40:59;6.28;;;2.28;;
74872;SDS011;68776;44.762;37.698;2023-08-20T04:42:00;18.33;;;5.23;;
74872;SDS011;68776;44.762;37.698;2023-08-20T04:43:01;19.10;;;5.93;;
74872;SDS011;68776;44.762;37.698;2023-08-20T04:44:03;22.35;;;6.15;;
74872;SDS011;68776;44.762;37.698;2023-08-20T04:45:05;25.42;;;6.07;;
74872;SDS011;68776;44.762;37.698;2023-08-20T04:46:07;17.15;;;5.60;;
74872;SDS011;68776;44.762;37.698;2023-08-20T04:47:11;23.38;;;5.22;;
74872;SDS011;68776;44.762;37.698;2023-08-20T04:48:15;27.80;;;5.88;;
74872;SDS011;68776;44.762;37.698;2023-08-20T05:32:25;17.77;;;5.05;;
74872;SDS011;68776;44.762;37.698;2023-08-20T05:33:27;3.45;;;1.30;;
74872;SDS011;68776;44.762;37.698;2023-08-20T05:34:29;7.40;;;1.90;;
74872;SDS011;68776;44.762;37.698;2023-08-20T05:35:30;8.75;;;1.90;;
74872;SDS011;68776;44.762;37.698;2023-08-20T05:36:31;6.40;;;1.50;;
74872;SDS011;68776;44.762;37.698;2023-08-20T05:37:32;5.85;;;1.38;;
74872;SDS011;68776;44.762;37.698;2023-08-20T05:38:33;17.42;;;5.05;;
74872;SDS011;68776;44.762;37.698;2023-08-20T06:42:59;17.15;;;4.70;;
74872;SDS011;68776;44.762;37.698;2023-08-20T06:44:00;3.70;;;1.20;;
74872;SDS011;68776;44.762;37.698;2023-08-20T06:45:00;6.20;;;1.50;;
74872;SDS011;68776;44.762;37.698;2023-08-20T06:46:01;5.13;;;1.45;;
74872;SDS011;68776;44.762;37.698;2023-08-20T06:47:02;7.05;;;1.10;;
74872;SDS011;68776;44.762;37.698;2023-08-20T06:48:03;8.05;;;1.20;;
74872;SDS011;68776;44.762;37.698;2023-08-20T06:49:05;4.40;;;1.52;;
74872;SDS011;68776;44.762;37.698;2023-08-20T06:50:07;5.18;;;1.33;;
74872;SDS011;68776;44.762;37.698;2023-08-20T06:51:12;50.92;;;6.80;;
74872;SDS011;68776;44.762;37.698;2023-08-20T06:52:19;17.95;;;5.60;;
74872;SDS011;68776;44.762;37.698;2023-08-20T06:53:20;17.65;;;4.88;;
74872;SDS011;68776;44.762;37.698;2023-08-20T06:54:21;20.35;;;5.72;;
74872;SDS011;68776;44.762;37.698;2023-08-20T06:55:23;19.92;;;5.18;;
74872;SDS011;68776;44.762;37.698;2023-08-20T06:56:24;17.83;;;5.20;;
74872;SDS011;68776;44.762;37.698;2023-08-20T06:57:25;18.48;;;4.63;;
74872;SDS011;68776;44.762;37.698;2023-08-20T06:58:26;25.33;;;5.00;;
74872;SDS011;68776;44.762;37.698;2023-08-20T07:15:44;34.10;;;5.25;;
74872;SDS011;68776;44.762;37.698;2023-08-20T07:16:45;24.88;;;5.30;;
74872;SDS011;68776;44.762;37.698;2023-08-20T07:17:46;19.13;;;4.93;;
74872;SDS011;68776;44.762;37.698;2023-08-20T07:18:47;16.93;;;4.53;;
74872;SDS011;68776;44.762;37.698;2023-08-20T07:19:48;4.28;;;1.13;;
74872;SDS011;68776;44.762;37.698;2023-08-20T07:20:50;7.60;;;1.48;;
74872;SDS011;68776;44.762;37.698;2023-08-20T07:21:52;5.57;;;1.30;;
74872;SDS011;68776;44.762;37.698;2023-08-20T07:22:53;9.05;;;2.13;;
74872;SDS011;68776;44.762;37.698;2023-08-20T07:23:54;4.75;;;1.60;;
74872;SDS011;68776;44.762;37.698;2023-08-20T07:24:55;9.35;;;2.13;;
74872;SDS011;68776;44.762;37.698;2023-08-20T07:26:05;7.45;;;1.50;;
74872;SDS011;68776;44.762;37.698;2023-08-20T07:27:08;6.87;;;1.97;;
74872;SDS011;68776;44.762;37.698;2023-08-20T07:29:08;6.75;;;1.80;;
74872;SDS011;68776;44.762;37.698;2023-08-20T07:30:09;6.68;;;2.03;;
74872;SDS011;68776;44.762;37.698;2023-08-20T07:31:11;10.48;;;1.65;;
74872;SDS011;68776;44.762;37.698;2023-08-20T07:32:12;6.63;;;1.38;;
74872;SDS011;68776;44.762;37.698;2023-08-20T07:33:13;15.50;;;2.45;;
74872;SDS011;68776;44.762;37.698;2023-08-20T07:34:14;5.85;;;1.50;;
74872;SDS011;68776;44.762;37.698;2023-08-20T07:35:15;4.32;;;1.58;;
74872;SDS011;68776;44.762;37.698;2023-08-20T07:36:17;7.90;;;1.42;;
74872;SDS011;68776;44.762;37.698;2023-08-20T07:37:19;6.88;;;1.80;;
74872;SDS011;68776;44.762;37.698;2023-08-20T07:38:20;6.75;;;2.20;;
74872;SDS011;68776;44.762;37.698;2023-08-20T07:39:21;20.13;;;2.22;;
74872;SDS011;68776;44.762;37.698;2023-08-20T07:40:22;5.72;;;1.60;;
74872;SDS011;68776;44.762;37.698;2023-08-20T07:41:23;6.80;;;1.98;;
74872;SDS011;68776;44.762;37.698;2023-08-20T07:42:25;8.05;;;1.73;;
74872;SDS011;68776;44.762;37.698;2023-08-20T07:43:26;4.97;;;1.50;;
74872;SDS011;68776;44.762;37.698;2023-08-20T07:44:27;5.90;;;1.40;;
74872;SDS011;68776;44.762;37.698;2023-08-20T07:45:28;7.15;;;1.70;;
74872;SDS011;68776;44.762;37.698;2023-08-20T07:46:30;5.25;;;1.88;;
74872;SDS011;68776;44.762;37.698;2023-08-20T07:47:31;6.03;;;1.92;;
74872;SDS011;68776;44.762;37.698;2023-08-20T07:48:32;6.70;;;1.90;;
74872;SDS011;68776;44.762;37.698;2023-08-20T07:49:33;21.55;;;5.03;;
74872;SDS011;68776;44.762;37.698;2023-08-20T07:50:34;19.17;;;5.88;;
74872;SDS011;68776;44.762;37.698;2023-08-20T07:51:35;21.55;;;5.43;;
74872;SDS011;68776;44.762;37.698;2023-08-20T07:52:36;18.15;;;5.07;;
74872;SDS011;68776;44.762;37.698;2023-08-20T07:53:37;19.00;;;5.25;;
74872;SDS011;68776;44.762;37.698;2023-08-20T07:54:38;21.08;;;6.22;;
74872;SDS011;68776;44.762;37.698;2023-08-20T07:55:39;20.87;;;5.83;;
74872;SDS011;68776;44.762;37.698;2023-08-20T07:56:40;44.10;;;6.00;;
74872;SDS011;68776;44.762;37.698;2023-08-20T07:57:41;18.67;;;4.97;;
74872;SDS011;68776;44.762;37.698;2023-08-20T07:58:42;22.05;;;5.45;;
74872;SDS011;68776;44.762;37.698;2023-08-20T07:59:43;5.38;;;1.63;;
74872;SDS011;68776;44.762;37.698;2023-08-20T08:00:44;5.57;;;1.95;;
74872;SDS011;68776;44.762;37.698;2023-08-20T08:01:45;16.55;;;4.68;;
74872;SDS011;68776;44.762;37.698;2023-08-20T08:02:46;19.45;;;5.32;;
74872;SDS011;68776;44.762;37.698;2023-08-20T08:03:47;18.15;;;5.03;;
74872;SDS011;68776;44.762;37.698;2023-08-20T08:04:48;5.63;;;1.47;;
74872;SDS011;68776;44.762;37.698;2023-08-20T08:05:50;4.20;;;1.48;;
74872;SDS011;68776;44.762;37.698;2023-08-20T08:06:51;8.63;;;2.03;;
74872;SDS011;68776;44.762;37.698;2023-08-20T08:07:52;4.57;;;1.55;;
74872;SDS011;68776;44.762;37.698;2023-08-20T08:08:53;6.37;;;1.80;;
74872;SDS011;68776;44.762;37.698;2023-08-20T08:09:54;4.78;;;1.90;;
74872;SDS011;68776;44.762;37.698;2023-08-20T08:10:55;9.10;;;2.00;;
74872;SDS011;68776;44.762;37.698;2023-08-20T08:11:56;5.97;;;1.75;;
74872;SDS011;68776;44.762;37.698;2023-08-20T08:12:58;5.22;;;1.85;;
74872;SDS011;68776;44.762;37.698;2023-08-20T08:13:59;5.57;;;1.65;;
74872;SDS011;68776;44.762;37.698;2023-08-20T08:15:00;6.40;;;1.88;;
74872;SDS011;68776;44.762;37.698;2023-08-20T08:16:01;4.95;;;1.80;;
74872;SDS011;68776;44.762;37.698;2023-08-20T08:17:02;5.45;;;1.70;;
74872;SDS011;68776;44.762;37.698;2023-08-20T08:18:04;7.80;;;2.03;;
74872;SDS011;68776;44.762;37.698;2023-08-20T08:19:06;5.10;;;1.73;;
74872;SDS011;68776;44.762;37.698;2023-08-20T08:20:07;4.70;;;1.50;;
74872;SDS011;68776;44.762;37.698;2023-08-20T08:21:08;6.38;;;1.60;;
74872;SDS011;68776;44.762;37.698;2023-08-20T08:22:09;3.58;;;1.38;;
74872;SDS011;68776;44.762;37.698;2023-08-20T08:23:10;7.22;;;1.80;;
74872;SDS011;68776;44.762;37.698;2023-08-20T08:24:11;4.05;;;1.73;;
74872;SDS011;68776;44.762;37.698;2023-08-20T08:25:13;8.27;;;1.98;;
74872;SDS011;68776;44.762;37.698;2023-08-20T08:26:14;7.97;;;1.90;;
74872;SDS011;68776;44.762;37.698;2023-08-20T08:27:15;19.50;;;4.70;;
74872;SDS011;68776;44.762;37.698;2023-08-20T08:28:16;19.25;;;5.28;;
74872;SDS011;68776;44.762;37.698;2023-08-20T08:29:17;18.23;;;5.05;;
74872;SDS011;68776;44.762;37.698;2023-08-20T08:30:18;19.90;;;5.15;;
74872;SDS011;68776;44.762;37.698;2023-08-20T08:32:20;19.45;;;5.75;;
74872;SDS011;68776;44.762;37.698;2023-08-20T08:33:21;26.80;;;5.77;;
74872;SDS011;68776;44.762;37.698;2023-08-20T08:34:24;26.37;;;5.97;;
74872;SDS011;68776;44.762;37.698;2023-08-20T08:35:25;19.20;;;5.38;;
74872;SDS011;68776;44.762;37.698;2023-08-20T08:36:26;20.95;;;5.05;;
74872;SDS011;68776;44.762;37.698;2023-08-20T08:37:27;19.58;;;5.68;;
74872;SDS011;68776;44.762;37.698;2023-08-20T08:38:28;18.25;;;4.85;;
74872;SDS011;68776;44.762;37.698;2023-08-20T08:39:29;9.55;;;1.65;;
74872;SDS011;68776;44.762;37.698;2023-08-20T08:40:30;6.00;;;2.10;;
74872;SDS011;68776;44.762;37.698;2023-08-20T08:41:31;5.35;;;2.03;;
74872;SDS011;68776;44.762;37.698;2023-08-20T08:42:35;6.50;;;2.08;;
74872;SDS011;68776;44.762;37.698;2023-08-20T08:43:40;5.68;;;1.83;;
74872;SDS011;68776;44.762;37.698;2023-08-20T08:44:41;9.85;;;1.85;;
74872;SDS011;68776;44.762;37.698;2023-08-20T08:45:44;4.30;;;1.67;;
74872;SDS011;68776;44.762;37.698;2023-08-20T08:46:48;4.70;;;1.48;;
74872;SDS011;68776;44.762;37.698;2023-08-20T08:47:51;4.10;;;1.67;;
74872;SDS011;68776;44.762;37.698;2023-08-20T08:48:54;21.42;;;5.50;;
74872;SDS011;68776;44.762;37.698;2023-08-20T08:49:55;20.90;;;6.18;;
74872;SDS011;68776;44.762;37.698;2023-08-20T08:50:57;20.55;;;6.05;;
74872;SDS011;68776;44.762;37.698;2023-08-20T08:51:59;4.25;;;1.52;;
74872;SDS011;68776;44.762;37.698;2023-08-20T08:53:03;5.13;;;1.88;;
74872;SDS011;68776;44.762;37.698;2023-08-20T08:54:05;5.30;;;2.13;;
74872;SDS011;68776;44.762;37.698;2023-08-20T08:55:09;7.05;;;2.15;;
74872;SDS011;68776;44.762;37.698;2023-08-20T08:56:10;6.78;;;2.05;;
74872;SDS011;68776;44.762;37.698;2023-08-20T08:57:11;6.18;;;1.98;;
74872;SDS011;68776;44.762;37.698;2023-08-20T08:58:12;8.52;;;2.30;;
74872;SDS011;68776;44.762;37.698;2023-08-20T08:59:14;8.27;;;1.88;;
74872;SDS011;68776;44.762;37.698;2023-08-20T09:00:15;14.23;;;2.30;;
74872;SDS011;68776;44.762;37.698;2023-08-20T09:01:16;5.55;;;1.83;;
74872;SDS011;68776;44.762;37.698;2023-08-20T09:02:17;5.63;;;1.90;;
74872;SDS011;68776;44.762;37.698;2023-08-20T09:03:19;6.87;;;2.00;;
74872;SDS011;68776;44.762;37.698;2023-08-20T09:04:20;8.77;;;1.80;;
74872;SDS011;68776;44.762;37.698;2023-08-20T09:05:21;8.43;;;2.10;;
74872;SDS011;68776;44.762;37.698;2023-08-20T09:06:23;11.85;;;2.15;;
74872;SDS011;68776;44.762;37.698;2023-08-20T09:07:24;4.65;;;1.90;;
74872;SDS011;68776;44.762;37.698;2023-08-20T09:08:28;5.45;;;1.88;;
74872;SDS011;68776;44.762;37.698;2023-08-20T09:09:30;5.22;;;1.90;;
74872;SDS011;68776;44.762;37.698;2023-08-20T09:10:31;26.05;;;6.10;;
74872;SDS011;68776;44.762;37.698;2023-08-20T09:11:36;19.85;;;5.57;;
74872;SDS011;68776;44.762;37.698;2023-08-20T09:12:37;9.23;;;1.88;;
74872;SDS011;68776;44.762;37.698;2023-08-20T09:13:38;4.38;;;1.60;;
74872;SDS011;68776;44.762;37.698;2023-08-20T09:14:50;9.75;;;1.80;;
74872;SDS011;68776;44.762;37.698;2023-08-20T09:15:53;4.10;;;1.80;;
74872;SDS011;68776;44.762;37.698;2023-08-20T09:16:55;7.10;;;2.13;;
74872;SDS011;68776;44.762;37.698;2023-08-20T09:18:00;4.68;;;2.13;;
74872;SDS011;68776;44.762;37.698;2023-08-20T09:19:03;8.10;;;2.10;;
74872;SDS011;68776;44.762;37.698;2023-08-20T09:20:04;6.22;;;1.88;;
74872;SDS011;68776;44.762;37.698;2023-08-20T09:21:06;6.47;;;2.13;;
74872;SDS011;68776;44.762;37.698;2023-08-20T09:22:09;7.00;;;2.30;;
74872;SDS011;68776;44.762;37.698;2023-08-20T09:23:11;6.55;;;1.95;;
74872;SDS011;68776;44.762;37.698;2023-08-20T09:24:15;8.40;;;2.00;;
74872;SDS011;68776;44.762;37.698;2023-08-20T09:25:16;5.93;;;1.55;;
74872;SDS011;68776;44.762;37.698;2023-08-20T09:26:17;9.90;;;2.40;;
74872;SDS011;68776;44.762;37.698;2023-08-20T09:27:18;7.47;;;2.40;;
74872;SDS011;68776;44.762;37.698;2023-08-20T09:28:20;5.97;;;2.20;;
74872;SDS011;68776;44.762;37.698;2023-08-20T09:29:21;5.82;;;2.08;;
74872;SDS011;68776;44.762;37.698;2023-08-20T09:30:22;5.78;;;2.08;;
74872;SDS011;68776;44.762;37.698;2023-08-20T09:31:36;11.48;;;2.78;;
74872;SDS011;68776;44.762;37.698;2023-08-20T09:32:38;5.15;;;2.13;;
74872;SDS011;68776;44.762;37.698;2023-08-20T09:33:49;5.65;;;1.90;;
74872;SDS011;68776;44.762;37.698;2023-08-20T09:34:51;8.70;;;2.10;;
74872;SDS011;68776;44.762;37.698;2023-08-20T09:35:54;5.47;;;2.20;;
74872;SDS011;68776;44.762;37.698;2023-08-20T09:36:55;6.67;;;2.10;;
74872;SDS011;68776;44.762;37.698;2023-08-20T09:38:05;23.23;;;6.18;;
74872;SDS011;68776;44.762;37.698;2023-08-20T09:39:06;3.38;;;1.35;;
74872;SDS011;68776;44.762;37.698;2023-08-20T09:40:07;5.70;;;1.70;;
74872;SDS011;68776;44.762;37.698;2023-08-20T09:41:09;10.50;;;1.73;;
74872;SDS011;68776;44.762;37.698;2023-08-20T09:42:10;7.00;;;1.95;;
74872;SDS011;68776;44.762;37.698;2023-08-20T09:43:12;3.97;;;1.50;;
74872;SDS011;68776;44.762;37.698;2023-08-20T09:44:16;6.80;;;2.00;;
74872;SDS011;68776;44.762;37.698;2023-08-20T09:45:19;5.40;;;1.70;;
74872;SDS011;68776;44.762;37.698;2023-08-20T09:46:21;4.10;;;1.70;;
74872;SDS011;68776;44.762;37.698;2023-08-20T09:47:24;7.50;;;2.10;;
74872;SDS011;68776;44.762;37.698;2023-08-20T09:48:27;5.78;;;1.63;;
74872;SDS011;68776;44.762;37.698;2023-08-20T09:49:38;10.20;;;2.38;;
74872;SDS011;68776;44.762;37.698;2023-08-20T09:50:40;5.73;;;1.70;;
74872;SDS011;68776;44.762;37.698;2023-08-20T09:51:41;6.70;;;2.08;;
74872;SDS011;68776;44.762;37.698;2023-08-20T09:52:55;4.43;;;1.67;;
74872;SDS011;68776;44.762;37.698;2023-08-20T09:54:12;4.10;;;1.67;;
74872;SDS011;68776;44.762;37.698;2023-08-20T09:55:23;5.72;;;1.95;;
74872;SDS011;68776;44.762;37.698;2023-08-20T09:56:38;9.98;;;2.33;;
74872;SDS011;68776;44.762;37.698;2023-08-20T09:57:40;11.43;;;2.15;;
74872;SDS011;68776;44.762;37.698;2023-08-20T09:58:41;9.32;;;1.83;;
74872;SDS011;68776;44.762;37.698;2023-08-20T09:59:44;7.50;;;1.90;;
74872;SDS011;68776;44.762;37.698;2023-08-20T10:00:48;5.68;;;1.88;;
74872;SDS011;68776;44.762;37.698;2023-08-20T10:01:50;21.42;;;2.78;;
74872;SDS011;68776;44.762;37.698;2023-08-20T10:02:52;10.75;;;2.40;;
74872;SDS011;68776;44.762;37.698;2023-08-20T10:03:53;4.60;;;1.67;;
74872;SDS011;68776;44.762;37.698;2023-08-20T10:04:55;6.97;;;1.70;;
74872;SDS011;68776;44.762;37.698;2023-08-20T10:05:56;4.50;;;2.00;;
74872;SDS011;68776;44.762;37.698;2023-08-20T10:06:58;5.93;;;1.58;;
74872;SDS011;68776;44.762;37.698;2023-08-20T10:08:00;4.47;;;1.63;;
74872;SDS011;68776;44.762;37.698;2023-08-20T10:09:02;4.43;;;1.77;;
74872;SDS011;68776;44.762;37.698;2023-08-20T10:10:05;7.88;;;1.98;;
74872;SDS011;68776;44.762;37.698;2023-08-20T10:11:08;4.47;;;1.40;;
74872;SDS011;68776;44.762;37.698;2023-08-20T10:12:09;17.48;;;2.90;;
74872;SDS011;68776;44.762;37.698;2023-08-20T10:13:10;8.60;;;2.00;;
74872;SDS011;68776;44.762;37.698;2023-08-20T10:14:14;9.40;;;1.95;;
74872;SDS011;68776;44.762;37.698;2023-08-20T10:15:15;7.68;;;2.13;;
74872;SDS011;68776;44.762;37.698;2023-08-20T10:16:20;7.07;;;1.75;;
74872;SDS011;68776;44.762;37.698;2023-08-20T10:17:23;5.50;;;1.70;;
74872;SDS011;68776;44.762;37.698;2023-08-20T10:18:25;4.63;;;1.50;;
74872;SDS011;68776;44.762;37.698;2023-08-20T10:19:27;5.10;;;1.80;;
74872;SDS011;68776;44.762;37.698;2023-08-20T10:20:31;5.28;;;2.00;;
74872;SDS011;68776;44.762;37.698;2023-08-20T10:21:32;7.20;;;1.83;;
74872;SDS011;68776;44.762;37.698;2023-08-20T10:22:40;5.80;;;1.83;;
74872;SDS011;68776;44.762;37.698;2023-08-20T10:23:42;4.78;;;1.80;;
74872;SDS011;68776;44.762;37.698;2023-08-20T10:24:50;4.43;;;1.67;;
74872;SDS011;68776;44.762;37.698;2023-08-20T10:25:53;6.10;;;2.03;;
74872;SDS011;68776;44.762;37.698;2023-08-20T10:27:28;4.85;;;2.20;;
74872;SDS011;68776;44.762;37.698;2023-08-20T10:28:28;8.20;;;2.17;;
74872;SDS011;68776;44.762;37.698;2023-08-20T10:29:39;8.05;;;2.03;;
74872;SDS011;68776;44.762;37.698;2023-08-20T10:32:10;6.80;;;1.70;;
74872;SDS011;68776;44.762;37.698;2023-08-20T10:33:12;23.10;;;5.40;;
74872;SDS011;68776;44.762;37.698;2023-08-20T10:34:21;21.90;;;5.82;;
74872;SDS011;68776;44.762;37.698;2023-08-20T10:36:41;34.45;;;6.32;;
74872;SDS011;68776;44.762;37.698;2023-08-20T10:38:01;23.65;;;6.03;;
74872;SDS011;68776;44.762;37.698;2023-08-20T10:39:04;21.45;;;6.25;;
74872;SDS011;68776;44.762;37.698;2023-08-20T10:40:06;4.45;;;1.67;;
74872;SDS011;68776;44.762;37.698;2023-08-20T10:41:08;7.28;;;1.90;;
74872;SDS011;68776;44.762;37.698;2023-08-20T10:42:13;19.95;;;5.72;;
74872;SDS011;68776;44.762;37.698;2023-08-20T10:43:29;20.90;;;5.65;;
74872;SDS011;68776;44.762;37.698;2023-08-20T10:44:55;21.65;;;6.03;;
74872;SDS011;68776;44.762;37.698;2023-08-20T10:47:22;19.30;;;5.60;;
74872;SDS011;68776;44.762;37.698;2023-08-20T10:48:23;21.80;;;5.93;;
74872;SDS011;68776;44.762;37.698;2023-08-20T10:49:24;19.10;;;5.43;;
74872;SDS011;68776;44.762;37.698;2023-08-20T10:50:27;20.13;;;5.85;;
74872;SDS011;68776;44.762;37.698;2023-08-20T10:51:37;20.75;;;5.70;;
74872;SDS011;68776;44.762;37.698;2023-08-20T10:52:41;18.02;;;5.32;;
74872;SDS011;68776;44.762;37.698;2023-08-20T10:53:48;21.98;;;5.55;;
74872;SDS011;68776;44.762;37.698;2023-08-20T10:55:10;20.77;;;6.55;;
74872;SDS011;68776;44.762;37.698;2023-08-20T10:56:17;22.73;;;6.20;;
74872;SDS011;68776;44.762;37.698;2023-08-20T10:57:18;19.55;;;5.63;;
74872;SDS011;68776;44.762;37.698;2023-08-20T10:58:23;21.73;;;6.38;;
74872;SDS011;68776;44.762;37.698;2023-08-20T10:59:28;20.27;;;5.70;;
74872;SDS011;68776;44.762;37.698;2023-08-20T11:00:30;18.85;;;5.50;;
74872;SDS011;68776;44.762;37.698;2023-08-20T11:01:33;20.67;;;5.80;;
74872;SDS011;68776;44.762;37.698;2023-08-20T11:02:35;4.40;;;1.75;;
74872;SDS011;68776;44.762;37.698;2023-08-20T11:03:36;21.47;;;5.93;;
74872;SDS011;68776;44.762;37.698;2023-08-20T11:04:37;21.90;;;5.78;;
74872;SDS011;68776;44.762;37.698;2023-08-20T11:05:39;21.05;;;6.22;;
74872;SDS011;68776;44.762;37.698;2023-08-20T11:06:40;17.50;;;5.30;;
74872;SDS011;68776;44.762;37.698;2023-08-20T11:07:41;5.40;;;2.08;;
74872;SDS011;68776;44.762;37.698;2023-08-20T11:08:43;6.55;;;1.65;;
74872;SDS011;68776;44.762;37.698;2023-08-20T11:09:45;4.88;;;2.00;;
74872;SDS011;68776;44.762;37.698;2023-08-20T11:10:47;5.30;;;2.28;;
74872;SDS011;68776;44.762;37.698;2023-08-20T11:11:48;20.50;;;6.07;;
74872;SDS011;68776;44.762;37.698;2023-08-20T11:12:50;25.35;;;6.95;;
74872;SDS011;68776;44.762;37.698;2023-08-20T11:13:51;23.52;;;6.63;;
74872;SDS011;68776;44.762;37.698;2023-08-20T11:14:52;22.33;;;6.47;;
74872;SDS011;68776;44.762;37.698;2023-08-20T11:15:53;23.57;;;6.50;;
74872;SDS011;68776;44.762;37.698;2023-08-20T11:16:55;20.90;;;6.03;;
74872;SDS011;68776;44.762;37.698;2023-08-20T11:17:57;20.05;;;5.20;;
74872;SDS011;68776;44.762;37.698;2023-08-20T11:18:58;22.27;;;5.35;;
74872;SDS011;68776;44.762;37.698;2023-08-20T11:36:21;22.45;;;5.55;;
74872;SDS011;68776;44.762;37.698;2023-08-20T11:37:23;22.63;;;6.10;;
74872;SDS011;68776;44.762;37.698;2023-08-20T11:38:24;26.50;;;6.93;;
74872;SDS011;68776;44.762;37.698;2023-08-20T11:39:25;22.45;;;6.35;;
74872;SDS011;68776;44.762;37.698;2023-08-20T11:40:26;21.67;;;6.15;;
74872;SDS011;68776;44.762;37.698;2023-08-20T11:41:27;22.07;;;6.63;;
74872;SDS011;68776;44.762;37.698;2023-08-20T11:42:28;19.13;;;6.00;;
74872;SDS011;68776;44.762;37.698;2023-08-20T11:43:29;18.38;;;5.63;;
74872;SDS011;68776;44.762;37.698;2023-08-20T11:44:41;21.65;;;5.60;;
74872;SDS011;68776;44.762;37.698;2023-08-20T11:45:47;19.55;;;5.68;;
74872;SDS011;68776;44.762;37.698;2023-08-20T11:46:48;21.42;;;5.85;;
74872;SDS011;68776;44.762;37.698;2023-08-20T11:47:49;21.05;;;6.43;;
74872;SDS011;68776;44.762;37.698;2023-08-20T11:49:08;23.30;;;5.95;;
74872;SDS011;68776;44.762;37.698;2023-08-20T11:50:10;20.92;;;6.13;;
74872;SDS011;68776;44.762;37.698;2023-08-20T11:51:11;20.93;;;6.13;;
74872;SDS011;68776;44.762;37.698;2023-08-20T11:52:12;21.25;;;5.95;;
74872;SDS011;68776;44.762;37.698;2023-08-20T11:53:21;21.33;;;6.13;;
74872;SDS011;68776;44.762;37.698;2023-08-20T11:54:25;22.60;;;5.70;;
74872;SDS011;68776;44.762;37.698;2023-08-20T11:55:26;21.13;;;5.80;;
74872;SDS011;68776;44.762;37.698;2023-08-20T11:56:32;19.40;;;5.50;;
74872;SDS011;68776;44.762;37.698;2023-08-20T13:48:08;23.90;;;5.78;;
74872;SDS011;68776;44.762;37.698;2023-08-20T13:49:09;23.83;;;6.25;;
74872;SDS011;68776;44.762;37.698;2023-08-20T13:50:10;21.67;;;6.20;;
74872;SDS011;68776;44.762;37.698;2023-08-20T13:53:12;26.87;;;5.73;;
74872;SDS011;68776;44.762;37.698;2023-08-20T13:54:13;21.25;;;5.78;;
74872;SDS011;68776;44.762;37.698;2023-08-20T13:55:14;19.88;;;5.97;;
74872;SDS011;68776;44.762;37.698;2023-08-20T13:56:15;18.73;;;5.63;;
74872;SDS011;68776;44.762;37.698;2023-08-20T13:57:16;20.77;;;5.80;;
74872;SDS011;68776;44.762;37.698;2023-08-20T13:58:17;20.98;;;6.32;;
74872;SDS011;68776;44.762;37.698;2023-08-20T13:59:18;20.50;;;6.05;;
74872;SDS011;68776;44.762;37.698;2023-08-20T14:00:19;21.75;;;5.88;;
74872;SDS011;68776;44.762;37.698;2023-08-20T14:01:20;20.90;;;6.25;;
74872;SDS011;68776;44.762;37.698;2023-08-20T14:02:21;20.45;;;5.95;;
74872;SDS011;68776;44.762;37.698;2023-08-20T14:03:23;22.00;;;6.70;;
74872;SDS011;68776;44.762;37.698;2023-08-20T14:04:24;20.00;;;6.13;;
74872;SDS011;68776;44.762;37.698;2023-08-20T14:05:25;21.17;;;6.03;;
74872;SDS011;68776;44.762;37.698;2023-08-20T14:06:26;20.40;;;6.35;;
74872;SDS011;68776;44.762;37.698;2023-08-20T14:07:27;21.42;;;6.72;;
74872;SDS011;68776;44.762;37.698;2023-08-20T14:08:28;24.02;;;7.53;;
74872;SDS011;68776;44.762;37.698;2023-08-20T14:09:29;21.88;;;6.68;;
74872;SDS011;68776;44.762;37.698;2023-08-20T14:10:30;22.13;;;6.68;;
74872;SDS011;68776;44.762;37.698;2023-08-20T14:11:31;21.13;;;6.28;;
74872;SDS011;68776;44.762;37.698;2023-08-20T14:12:33;20.57;;;6.17;;
74872;SDS011;68776;44.762;37.698;2023-08-20T14:13:34;20.15;;;6.00;;
74872;SDS011;68776;44.762;37.698;2023-08-20T14:14:35;24.17;;;6.63;;
74872;SDS011;68776;44.762;37.698;2023-08-20T14:15:36;24.45;;;6.43;;
74872;SDS011;68776;44.762;37.698;2023-08-20T14:16:37;19.95;;;5.90;;
74872;SDS011;68776;44.762;37.698;2023-08-20T14:17:38;20.98;;;5.93;;
74872;SDS011;68776;44.762;37.698;2023-08-20T14:18:39;22.45;;;6.72;;
74872;SDS011;68776;44.762;37.698;2023-08-20T14:19:41;21.15;;;6.75;;
74872;SDS011;68776;44.762;37.698;2023-08-20T14:20:42;20.73;;;6.13;;
74872;SDS011;68776;44.762;37.698;2023-08-20T14:21:43;24.23;;;6.25;;
74872;SDS011;68776;44.762;37.698;2023-08-20T14:22:44;21.25;;;5.57;;
74872;SDS011;68776;44.762;37.698;2023-08-20T14:23:44;21.08;;;5.55;;
74872;SDS011;68776;44.762;37.698;2023-08-20T14:24:45;20.35;;;5.68;;
74872;SDS011;68776;44.762;37.698;2023-08-20T14:25:47;20.50;;;6.13;;
74872;SDS011;68776;44.762;37.698;2023-08-20T14:26:48;21.35;;;6.18;;
74872;SDS011;68776;44.762;37.698;2023-08-20T14:27:49;24.83;;;6.28;;
74872;SDS011;68776;44.762;37.698;2023-08-20T14:28:50;23.05;;;6.82;;
74872;SDS011;68776;44.762;37.698;2023-08-20T14:29:51;22.77;;;6.83;;
74872;SDS011;68776;44.762;37.698;2023-08-20T14:30:52;22.40;;;6.80;;
74872;SDS011;68776;44.762;37.698;2023-08-20T14:32:55;27.95;;;6.80;;
74872;SDS011;68776;44.762;37.698;2023-08-20T14:33:56;25.45;;;6.35;;
74872;SDS011;68776;44.762;37.698;2023-08-20T14:34:58;20.52;;;6.35;;
74872;SDS011;68776;44.762;37.698;2023-08-20T14:35:59;6.20;;;2.40;;
74872;SDS011;68776;44.762;37.698;2023-08-20T14:37:00;7.85;;;2.70;;
74872;SDS011;68776;44.762;37.698;2023-08-20T14:38:01;6.75;;;2.40;;
74872;SDS011;68776;44.762;37.698;2023-08-20T14:39:02;7.43;;;2.70;;
74872;SDS011;68776;44.762;37.698;2023-08-20T14:40:05;8.30;;;2.58;;
74872;SDS011;68776;44.762;37.698;2023-08-20T14:41:07;6.53;;;2.40;;
74872;SDS011;68776;44.762;37.698;2023-08-20T14:42:07;8.30;;;2.45;;
74872;SDS011;68776;44.762;37.698;2023-08-20T14:43:09;6.82;;;2.58;;
74872;SDS011;68776;44.762;37.698;2023-08-20T14:44:10;6.22;;;2.40;;
74872;SDS011;68776;44.762;37.698;2023-08-20T14:45:11;5.78;;;2.90;;
74872;SDS011;68776;44.762;37.698;2023-08-20T14:46:12;11.25;;;3.40;;
74872;SDS011;68776;44.762;37.698;2023-08-20T14:47:13;13.30;;;3.90;;
74872;SDS011;68776;44.762;37.698;2023-08-20T14:48:14;6.95;;;2.90;;
74872;SDS011;68776;44.762;37.698;2023-08-20T14:49:15;5.43;;;2.50;;
74872;SDS011;68776;44.762;37.698;2023-08-20T14:50:19;7.65;;;2.97;;
74872;SDS011;68776;44.762;37.698;2023-08-20T14:51:20;10.73;;;2.90;;
74872;SDS011;68776;44.762;37.698;2023-08-20T14:52:21;8.88;;;2.70;;
74872;SDS011;68776;44.762;37.698;2023-08-20T14:53:22;6.30;;;2.55;;
74872;SDS011;68776;44.762;37.698;2023-08-20T14:54:23;8.80;;;3.00;;
74872;SDS011;68776;44.762;37.698;2023-08-20T14:55:24;7.00;;;2.55;;